Terminal Aerodrome Forecast
Issued by NWS

Current Version | Previous Version | Text Only | Print | Product List | Glossary On
Versions: 1 2 3 4 5 6 7 8 9 10 11 12 13 14 15 16 17 18 19
000
FTUS43 KIND 250800 AAA
TAFHUF
TAF AMD
KHUF 250810Z 2508/2606 VRB02KT P6SM FEW250
      TEMPO 2508/2512 00000KT 3/4SM BR
     FM251500 19007KT P6SM SCT050 BKN150=

USA.gov is the U.S. government's official web portal to all federal, state and local government web resources and services.